Time;durP1;ratioP1;P1;durP2;ratioP2;P2;SDS_P1;SDS_P2;PMS_P1;PMS_P2;Temp;Humidity;BMP_temperature;BMP_pressure;BME280_temperature;BME280_humidity;BME280_pressure;Samples;Min_cycle;Max_cycle;Signal;HPM_P1;HPM_P2
2022/11/20 00:00:55;;;;;;;12.88;8.35;;;1.80;99.90;;;;;;5069567;28;20063;-81
2022/11/20 00:03:21;;;;;;;13.65;8.55;;;1.80;99.90;;;;;;5074691;28;20072;-82
2022/11/20 00:05:47;;;;;;;14.13;9.15;;;1.80;99.90;;;;;;5090818;28;20114;-82
2022/11/20 00:08:13;;;;;;;15.25;8.88;;;1.70;99.90;;;;;;5057381;28;20488;-81
2022/11/20 00:10:39;;;;;;;15.88;9.55;;;1.70;99.90;;;;;;5072761;28;20049;-81
2022/11/20 00:13:06;;;;;;;14.88;9.27;;;1.70;99.90;;;;;;5072967;28;20519;-81
2022/11/20 00:15:31;;;;;;;13.77;9.10;;;1.70;99.90;;;;;;5090182;28;20070;-81
2022/11/20 00:17:57;;;;;;;12.48;8.00;;;1.80;99.90;;;;;;5058658;28;20048;-81
2022/11/20 00:20:23;;;;;;;14.55;9.32;;;1.70;99.90;;;;;;5072556;28;20079;-81
2022/11/20 00:22:50;;;;;;;16.17;9.45;;;1.70;99.90;;;;;;5106470;28;20048;-81
2022/11/20 00:25:15;;;;;;;14.80;9.68;;;1.60;99.90;;;;;;5089673;28;20047;-81
2022/11/20 00:27:41;;;;;;;16.35;9.88;;;1.70;99.90;;;;;;5065059;28;20048;-83
2022/11/20 00:30:07;;;;;;;13.73;9.32;;;1.70;99.90;;;;;;5088897;28;20052;-81
2022/11/20 00:32:33;;;;;;;17.35;9.75;;;1.60;99.90;;;;;;5072631;28;20389;-81
2022/11/20 00:34:59;;;;;;;16.90;9.38;;;1.60;99.90;;;;;;5096091;28;20119;-81
2022/11/20 00:37:24;;;;;;;15.23;9.45;;;1.60;99.90;;;;;;5124372;27;20048;-81
2022/11/20 00:39:50;;;;;;;15.80;9.23;;;1.70;99.90;;;;;;5051859;28;20041;-81
2022/11/20 00:42:16;;;;;;;16.42;9.70;;;1.60;99.90;;;;;;5086363;28;20044;-80
2022/11/20 00:44:41;;;;;;;14.63;9.27;;;1.60;99.90;;;;;;5071101;28;20084;-81
2022/11/20 00:47:08;;;;;;;15.48;8.98;;;1.70;99.90;;;;;;5074336;28;20048;-81
2022/11/20 00:49:34;;;;;;;18.17;9.90;;;1.60;99.90;;;;;;5062297;28;20106;-81
2022/11/20 00:52:00;;;;;;;13.88;8.57;;;1.60;99.90;;;;;;5068507;28;20037;-82
2022/11/20 00:54:25;;;;;;;14.00;8.65;;;1.60;99.90;;;;;;5068803;28;20133;-81
2022/11/20 00:56:53;;;;;;;14.48;9.27;;;1.50;99.90;;;;;;5051372;28;20385;-81
2022/11/20 00:59:19;;;;;;;14.75;8.85;;;1.50;99.90;;;;;;5075264;28;20445;-81
2022/11/20 01:01:44;;;;;;;14.65;8.88;;;1.60;99.90;;;;;;5085857;28;20045;-80
2022/11/20 01:04:10;;;;;;;16.02;9.05;;;1.40;99.90;;;;;;5068386;28;20045;-81
2022/11/20 01:06:38;;;;;;;14.18;8.85;;;1.40;99.90;;;;;;5082835;28;20040;-81
2022/11/20 01:09:07;;;;;;;14.85;8.77;;;1.40;99.90;;;;;;5071223;28;20052;-81
2022/11/20 01:11:39;;;;;;;16.90;10.35;;;1.40;99.90;;;;;;5085563;28;20037;-81
2022/11/20 01:14:07;;;;;;;17.67;9.77;;;1.30;99.90;;;;;;5069825;28;20040;-81
2022/11/20 01:16:42;;;;;;;15.07;9.77;;;1.30;99.90;;;;;;5088862;28;20543;-81
2022/11/20 01:19:11;;;;;;;17.42;9.10;;;1.40;99.90;;;;;;5055769;28;20051;-81
2022/11/20 01:21:39;;;;;;;14.23;9.25;;;1.40;99.90;;;;;;5071271;28;20128;-81
2022/11/20 01:24:07;;;;;;;15.07;9.52;;;1.40;99.90;;;;;;5088421;28;20048;-81
2022/11/20 01:26:36;;;;;;;16.95;9.60;;;1.40;99.90;;;;;;5074608;28;20349;-81
2022/11/20 01:29:02;;;;;;;13.95;9.00;;;1.40;99.90;;;;;;5072680;28;20056;-81
2022/11/20 01:31:37;;;;;;;14.68;9.10;;;1.50;99.90;;;;;;5071843;28;20044;-80
2022/11/20 01:34:06;;;;;;;17.67;10.00;;;1.50;99.90;;;;;;5071828;28;20094;-81
2022/11/20 01:36:35;;;;;;;14.85;9.45;;;1.50;99.90;;;;;;5036320;28;20072;-81
2022/11/20 01:39:04;;;;;;;16.58;9.60;;;1.50;99.90;;;;;;5090758;28;20048;-81
2022/11/20 01:44:19;;;;;;;14.55;9.80;;;1.50;99.90;;;;;;5111442;28;20472;-81
2022/11/20 01:46:59;;;;;;;14.07;9.27;;;1.50;99.90;;;;;;5078626;28;20047;-80
2022/11/20 01:49:36;;;;;;;13.90;9.57;;;1.50;99.90;;;;;;5047924;28;20048;-81
2022/11/20 01:52:07;;;;;;;15.60;9.95;;;1.50;99.90;;;;;;5062971;28;20106;-81
2022/11/20 01:54:42;;;;;;;15.82;9.90;;;1.40;99.90;;;;;;5058943;28;20037;-81
2022/11/20 01:57:11;;;;;;;13.38;8.63;;;1.50;99.90;;;;;;5084213;28;20055;-81
2022/11/20 01:59:44;;;;;;;13.77;8.82;;;1.50;99.90;;;;;;5057951;28;20041;-81
2022/11/20 02:02:09;;;;;;;14.73;9.00;;;1.50;99.90;;;;;;5065471;28;20148;-81
2022/11/20 02:04:35;;;;;;;16.33;9.32;;;1.50;99.90;;;;;;5117022;27;20119;-81
2022/11/20 02:07:04;;;;;;;15.45;10.13;;;1.50;99.90;;;;;;5061003;28;20049;-81
2022/11/20 02:09:30;;;;;;;16.77;10.43;;;1.50;99.90;;;;;;5078417;28;20048;-80
2022/11/20 02:11:57;;;;;;;14.40;9.95;;;1.50;99.90;;;;;;5088513;28;20043;-82
2022/11/20 02:14:24;;;;;;;17.33;9.73;;;1.50;99.90;;;;;;5085608;28;20083;-82
2022/11/20 02:16:50;;;;;;;14.88;10.20;;;1.50;99.90;;;;;;5078270;28;20094;-81
2022/11/20 02:19:29;;;;;;;16.88;10.10;;;1.50;99.90;;;;;;5074541;28;20106;-81
2022/11/20 02:22:01;;;;;;;17.88;10.52;;;1.50;99.90;;;;;;5107149;28;20052;-82
2022/11/20 02:24:27;;;;;;;16.73;10.65;;;1.40;99.90;;;;;;5091474;28;20047;-81
2022/11/20 02:27:00;;;;;;;15.75;9.52;;;1.40;99.90;;;;;;5073972;28;20123;-81
2022/11/20 02:29:53;;;;;;;15.18;10.40;;;1.50;99.90;;;;;;5088565;28;20076;-81
2022/11/20 02:32:28;;;;;;;14.55;9.60;;;1.50;99.90;;;;;;5100043;28;20056;-81
2022/11/20 02:34:54;;;;;;;14.57;10.07;;;1.50;99.90;;;;;;5087516;28;20052;-81
2022/11/20 02:37:21;;;;;;;18.23;10.75;;;1.50;99.90;;;;;;5060026;28;20123;-82
2022/11/20 02:39:49;;;;;;;14.95;9.98;;;1.50;99.90;;;;;;5071380;28;20051;-81
2022/11/20 02:42:15;;;;;;;14.68;9.80;;;1.50;99.90;;;;;;5057863;28;20041;-81
2022/11/20 02:44:41;;;;;;;17.48;10.85;;;1.50;99.90;;;;;;5074352;28;20044;-81
2022/11/20 02:47:07;;;;;;;16.77;10.63;;;1.50;99.90;;;;;;5074131;28;20044;-81
2022/11/20 02:49:32;;;;;;;16.13;10.57;;;1.50;99.90;;;;;;5057288;28;20458;-81
2022/11/20 02:51:58;;;;;;;15.07;10.18;;;1.60;99.90;;;;;;5074478;28;20044;-81
2022/11/20 02:54:25;;;;;;;18.45;10.88;;;1.60;99.90;;;;;;5057729;28;20060;-81
2022/11/20 02:56:51;;;;;;;15.23;10.18;;;1.60;99.90;;;;;;5061485;28;20056;-81
2022/11/20 02:59:17;;;;;;;17.33;11.30;;;1.60;99.90;;;;;;5084942;28;20079;-81
2022/11/20 03:01:42;;;;;;;15.90;10.27;;;1.60;99.90;;;;;;5037691;28;20141;-81
2022/11/20 03:04:08;;;;;;;17.08;10.60;;;1.60;99.90;;;;;;5054077;28;20049;-81
2022/11/20 03:06:34;;;;;;;16.17;10.68;;;1.50;99.90;;;;;;5070758;28;20041;-81
2022/11/20 03:08:59;;;;;;;16.25;10.18;;;1.70;99.90;;;;;;5070697;28;20496;-82
2022/11/20 03:11:25;;;;;;;14.63;9.93;;;1.60;99.90;;;;;;5083966;28;20040;-81
2022/11/20 03:13:51;;;;;;;17.85;10.52;;;1.60;99.90;;;;;;5092662;28;20051;-81
2022/11/20 03:16:19;;;;;;;16.48;10.30;;;1.50;99.90;;;;;;5061412;28;20430;-81
2022/11/20 03:18:45;;;;;;;17.92;10.30;;;1.60;99.90;;;;;;5057171;28;20044;-80
2022/11/20 03:21:12;;;;;;;15.75;9.88;;;1.50;99.90;;;;;;5075847;28;20060;-81
2022/11/20 03:23:39;;;;;;;14.93;9.82;;;1.50;99.90;;;;;;5058317;28;20043;-81
2022/11/20 03:26:16;;;;;;;15.00;9.40;;;1.60;99.90;;;;;;5067248;28;20442;-81
2022/11/20 03:28:46;;;;;;;15.05;9.50;;;1.50;99.90;;;;;;5107134;27;20160;-81
2022/11/20 03:31:14;;;;;;;16.48;10.50;;;1.60;99.90;;;;;;5091502;28;20526;-81
2022/11/20 03:33:41;;;;;;;15.90;9.65;;;1.50;99.90;;;;;;5040460;28;20040;-80
2022/11/20 03:36:10;;;;;;;14.02;8.52;;;1.50;99.90;;;;;;5073680;28;20063;-81
2022/11/20 03:38:36;;;;;;;14.00;9.23;;;1.50;99.90;;;;;;5051921;28;20041;-81
2022/11/20 03:41:08;;;;;;;14.15;9.20;;;1.60;99.90;;;;;;5067739;28;20048;-81
2022/11/20 03:43:34;;;;;;;12.88;8.48;;;1.50;99.90;;;;;;5090473;28;20048;-81
2022/11/20 03:46:00;;;;;;;15.60;9.63;;;1.50;99.90;;;;;;5075097;28;20481;-81
2022/11/20 03:48:26;;;;;;;13.63;8.90;;;1.50;99.90;;;;;;5071758;28;20094;-81
2022/11/20 03:50:53;;;;;;;13.40;8.27;;;1.40;99.90;;;;;;5094163;28;20047;-81
2022/11/20 03:53:20;;;;;;;12.75;8.50;;;1.50;99.90;;;;;;5091714;28;20050;-81
2022/11/20 03:55:51;;;;;;;13.45;8.32;;;1.40;99.90;;;;;;5093603;28;20048;-80
2022/11/20 03:58:17;;;;;;;14.70;8.90;;;1.40;99.90;;;;;;5076232;28;20093;-81
2022/11/20 04:00:43;;;;;;;15.27;8.45;;;1.30;99.90;;;;;;5077197;28;20051;-81
2022/11/20 04:03:09;;;;;;;14.35;8.82;;;1.30;99.90;;;;;;5068322;28;20051;-81
2022/11/20 04:05:34;;;;;;;14.27;9.32;;;1.20;99.90;;;;;;5076221;28;20040;-81
2022/11/20 04:08:00;;;;;;;14.50;8.80;;;1.20;99.90;;;;;;5072810;28;20147;-80
2022/11/20 04:10:26;;;;;;;13.60;8.75;;;1.20;99.90;;;;;;5072189;28;20507;-80
2022/11/20 04:12:51;;;;;;;13.48;9.05;;;1.20;99.90;;;;;;5089800;28;20056;-80
2022/11/20 04:15:17;;;;;;;13.85;9.35;;;1.20;99.90;;;;;;5089487;28;20126;-81
2022/11/20 04:17:43;;;;;;;13.80;9.25;;;1.10;99.90;;;;;;5072561;28;20047;-81
2022/11/20 04:20:09;;;;;;;15.95;8.88;;;1.00;99.90;;;;;;5070134;28;20044;-81
2022/11/20 04:22:35;;;;;;;14.68;9.07;;;1.00;99.90;;;;;;5090066;28;20044;-80
2022/11/20 04:25:01;;;;;;;14.98;8.70;;;0.90;99.90;;;;;;5090030;28;20044;-82
2022/11/20 04:27:26;;;;;;;16.27;9.52;;;0.90;99.90;;;;;;5047437;28;20044;-80
2022/11/20 04:29:52;;;;;;;17.08;9.25;;;0.90;99.90;;;;;;5079258;28;20055;-80
2022/11/20 04:32:18;;;;;;;13.27;9.15;;;0.90;99.90;;;;;;5058543;28;20048;-80
2022/11/20 04:34:43;;;;;;;15.32;9.80;;;0.80;99.90;;;;;;5092039;28;20037;-80
2022/11/20 04:37:09;;;;;;;14.80;9.77;;;0.80;99.90;;;;;;5100520;28;20392;-79
2022/11/20 04:39:35;;;;;;;15.57;10.10;;;0.80;99.90;;;;;;5082303;28;20040;-79
2022/11/20 04:44:44;;;;;;;16.35;10.20;;;0.70;99.90;;;;;;5091568;27;20110;-80
2022/11/20 04:47:10;;;;;;;15.90;10.23;;;0.60;99.90;;;;;;5058657;28;20039;-79
2022/11/20 04:49:36;;;;;;;17.10;10.15;;;0.60;99.90;;;;;;5084992;28;20124;-79
2022/11/20 04:52:01;;;;;;;16.02;10.65;;;0.60;99.90;;;;;;5054635;28;20048;-80
2022/11/20 04:54:27;;;;;;;17.65;10.55;;;0.60;99.90;;;;;;5053911;28;20055;-79
2022/11/20 04:56:53;;;;;;;20.55;10.75;;;0.60;99.90;;;;;;5101751;28;20048;-80
2022/11/20 04:59:18;;;;;;;16.58;10.68;;;0.60;99.90;;;;;;5075150;28;20111;-80
2022/11/20 05:01:44;;;;;;;17.02;10.75;;;0.60;99.90;;;;;;5090605;28;20040;-80
2022/11/20 05:04:10;;;;;;;17.90;10.35;;;0.50;99.90;;;;;;5059135;28;20044;-79
2022/11/20 05:06:36;;;;;;;18.17;10.55;;;0.50;99.90;;;;;;5099902;28;20055;-79
2022/11/20 05:09:02;;;;;;;17.15;10.85;;;0.50;99.90;;;;;;5039800;28;20545;-79
2022/11/20 05:11:28;;;;;;;18.05;11.43;;;0.50;99.90;;;;;;5072843;28;20124;-79
2022/11/20 05:13:55;;;;;;;18.70;11.25;;;0.60;99.90;;;;;;5055082;28;20399;-80
2022/11/20 05:16:23;;;;;;;17.83;11.65;;;0.60;99.90;;;;;;5077626;28;20645;-80
2022/11/20 05:18:49;;;;;;;20.45;10.73;;;0.60;99.90;;;;;;5083227;28;20048;-79
2022/11/20 05:21:16;;;;;;;19.27;10.48;;;0.70;99.90;;;;;;5082534;28;20058;-79
2022/11/20 05:23:43;;;;;;;16.25;10.63;;;0.80;99.90;;;;;;5084354;28;20117;-80
2022/11/20 05:26:13;;;;;;;15.30;10.13;;;0.80;99.90;;;;;;5054317;28;20060;-79
2022/11/20 05:28:39;;;;;;;15.60;10.82;;;0.90;99.90;;;;;;5085849;28;20128;-80
2022/11/20 05:31:10;;;;;;;16.15;10.13;;;0.90;99.90;;;;;;5060909;28;20186;-80
2022/11/20 05:33:36;;;;;;;17.35;10.45;;;1.00;99.90;;;;;;5077333;28;20044;-80
2022/11/20 05:36:05;;;;;;;16.33;10.73;;;1.00;99.90;;;;;;5071940;28;20377;-80
2022/11/20 05:38:31;;;;;;;16.40;10.63;;;1.10;99.90;;;;;;5074915;28;20438;-80
2022/11/20 05:41:07;;;;;;;16.17;10.43;;;1.00;99.90;;;;;;5075327;28;20048;-79
2022/11/20 05:43:34;;;;;;;15.60;9.68;;;1.00;99.90;;;;;;5107417;28;20059;-80
2022/11/20 05:46:01;;;;;;;16.15;10.60;;;1.10;99.90;;;;;;5082984;28;20048;-79
2022/11/20 05:48:26;;;;;;;17.20;10.27;;;1.00;99.90;;;;;;5059211;28;20120;-80
2022/11/20 05:50:52;;;;;;;14.70;9.57;;;1.10;99.90;;;;;;5070527;28;20476;-79
2022/11/20 05:53:18;;;;;;;15.13;10.10;;;1.10;99.90;;;;;;5072837;28;20052;-79
2022/11/20 05:55:43;;;;;;;16.25;9.88;;;1.10;99.90;;;;;;5070944;28;20076;-80
2022/11/20 05:58:09;;;;;;;16.98;9.80;;;1.20;99.90;;;;;;5064111;28;20045;-80
2022/11/20 06:00:36;;;;;;;18.25;10.30;;;1.10;99.90;;;;;;5060073;28;20044;-80
2022/11/20 06:03:02;;;;;;;16.23;10.10;;;1.10;99.90;;;;;;5056314;28;20096;-80
2022/11/20 06:05:27;;;;;;;13.88;9.20;;;1.00;99.90;;;;;;5074830;28;20048;-80
2022/11/20 06:07:53;;;;;;;15.43;10.30;;;1.10;99.90;;;;;;5087919;28;20499;-80
2022/11/20 06:10:18;;;;;;;16.17;10.02;;;1.10;99.90;;;;;;5074300;28;20098;-79
2022/11/20 06:12:44;;;;;;;17.17;10.20;;;1.00;99.90;;;;;;5063502;28;20040;-79
2022/11/20 06:15:10;;;;;;;14.05;9.68;;;1.00;99.90;;;;;;5040737;28;20051;-80
2022/11/20 06:17:36;;;;;;;15.23;10.10;;;0.90;99.90;;;;;;5063171;28;20052;-80
2022/11/20 06:20:01;;;;;;;15.82;9.23;;;0.90;99.90;;;;;;5052730;28;20489;-80
2022/11/20 06:22:27;;;;;;;14.93;9.77;;;0.90;99.90;;;;;;5059303;28;20353;-80
2022/11/20 06:24:53;;;;;;;14.80;9.50;;;0.90;99.90;;;;;;5058602;28;20106;-80
2022/11/20 06:27:18;;;;;;;15.25;9.07;;;0.80;99.90;;;;;;5088607;28;20048;-80
2022/11/20 06:29:44;;;;;;;13.20;8.82;;;0.80;99.90;;;;;;5058401;28;20067;-81
2022/11/20 06:32:10;;;;;;;14.43;9.38;;;0.80;99.90;;;;;;5070930;28;20120;-80
2022/11/20 06:34:35;;;;;;;15.80;9.85;;;0.70;99.90;;;;;;5054158;28;20041;-80
2022/11/20 06:37:01;;;;;;;18.73;10.07;;;0.70;99.90;;;;;;5054504;28;20059;-80
2022/11/20 06:39:27;;;;;;;15.85;9.43;;;0.70;99.90;;;;;;5041222;28;20400;-82
2022/11/20 06:41:52;;;;;;;15.43;8.95;;;0.60;99.90;;;;;;5085074;28;20057;-80
2022/11/20 06:44:18;;;;;;;15.15;9.18;;;0.60;99.90;;;;;;5088228;28;20043;-80
2022/11/20 06:46:44;;;;;;;14.13;9.18;;;0.60;99.90;;;;;;5064480;28;20052;-81
2022/11/20 06:49:09;;;;;;;15.35;10.18;;;0.60;99.90;;;;;;5064896;28;20102;-80
2022/11/20 06:51:35;;;;;;;16.40;10.02;;;0.60;99.90;;;;;;5055816;28;20047;-80
2022/11/20 06:54:00;;;;;;;15.02;9.60;;;0.60;99.90;;;;;;5071214;28;20047;-81
2022/11/20 06:56:26;;;;;;;14.73;9.30;;;0.60;99.90;;;;;;5048517;28;20096;-80
2022/11/20 06:58:52;;;;;;;14.07;9.40;;;0.50;99.90;;;;;;5084261;28;20119;-77
2022/11/20 07:01:18;;;;;;;15.38;9.52;;;0.60;99.90;;;;;;5090565;28;20055;-80
2022/11/20 07:03:44;;;;;;;14.60;9.20;;;0.60;99.90;;;;;;5073908;28;20098;-81
2022/11/20 07:06:09;;;;;;;15.38;9.13;;;0.70;99.90;;;;;;5039683;28;20109;-81
2022/11/20 07:08:36;;;;;;;15.00;9.38;;;0.60;99.90;;;;;;5073148;28;20037;-82
2022/11/20 07:11:04;;;;;;;14.23;8.93;;;0.60;99.90;;;;;;5075021;28;20045;-82
2022/11/20 07:13:30;;;;;;;14.48;9.20;;;0.70;99.90;;;;;;5057060;28;20052;-84
2022/11/20 07:16:01;;;;;;;14.80;9.65;;;0.70;99.90;;;;;;5057419;28;20052;-80
2022/11/20 07:18:26;;;;;;;18.15;10.57;;;0.80;99.90;;;;;;5074436;28;20051;-80
2022/11/20 07:20:52;;;;;;;15.02;9.60;;;0.70;99.90;;;;;;5056888;28;20404;-80
2022/11/20 07:23:18;;;;;;;14.25;9.70;;;0.60;99.90;;;;;;5057519;28;20047;-80
2022/11/20 07:25:44;;;;;;;14.82;9.45;;;0.60;99.90;;;;;;5073734;28;20044;-83
2022/11/20 07:28:10;;;;;;;15.73;9.20;;;0.60;99.90;;;;;;5057259;28;20089;-80
2022/11/20 07:30:37;;;;;;;16.58;10.40;;;0.60;99.90;;;;;;5073833;28;20345;-82
2022/11/20 07:33:03;;;;;;;16.52;10.23;;;0.50;99.90;;;;;;5060335;28;20051;-82
2022/11/20 07:35:28;;;;;;;15.02;9.23;;;0.50;99.90;;;;;;5073462;28;20049;-80
2022/11/20 07:37:54;;;;;;;15.35;10.50;;;0.40;99.90;;;;;;5065286;28;20045;-80
2022/11/20 07:40:20;;;;;;;14.82;9.88;;;0.40;99.90;;;;;;5058197;28;20052;-80
2022/11/20 07:42:52;;;;;;;15.52;10.35;;;0.40;99.90;;;;;;5073513;28;20051;-82
2022/11/20 07:45:19;;;;;;;15.75;9.85;;;0.40;99.90;;;;;;5082749;28;20036;-80
2022/11/20 07:47:45;;;;;;;16.63;10.75;;;0.50;99.90;;;;;;5063519;28;20051;-87
2022/11/20 07:50:11;;;;;;;15.38;9.98;;;0.50;99.90;;;;;;5055483;28;20143;-82
2022/11/20 07:52:37;;;;;;;17.85;10.15;;;0.50;99.90;;;;;;5073083;28;20503;-82
2022/11/20 07:55:02;;;;;;;16.02;10.57;;;0.60;99.90;;;;;;5074038;28;20045;-81
2022/11/20 07:57:28;;;;;;;16.05;10.38;;;0.60;99.90;;;;;;5073392;28;20056;-81
2022/11/20 07:59:54;;;;;;;14.57;10.05;;;0.70;99.90;;;;;;5069216;28;20124;-81
2022/11/20 08:02:19;;;;;;;13.88;9.82;;;0.70;99.90;;;;;;5053808;28;20037;-81
2022/11/20 08:04:45;;;;;;;15.05;9.90;;;0.80;99.90;;;;;;5069694;28;20040;-81
2022/11/20 08:07:11;;;;;;;15.88;10.43;;;0.90;99.90;;;;;;5069611;28;20091;-81
2022/11/20 08:09:36;;;;;;;17.70;9.70;;;0.90;99.90;;;;;;5080661;28;20114;-81
2022/11/20 08:14:46;;;;;;;14.57;10.07;;;1.00;99.90;;;;;;5067014;28;20049;-81
2022/11/20 08:17:12;;;;;;;16.60;10.10;;;1.00;99.90;;;;;;5052960;28;20063;-81
2022/11/20 08:19:37;;;;;;;14.90;9.70;;;1.10;99.90;;;;;;5075568;28;20123;-81
2022/11/20 08:22:03;;;;;;;16.27;10.35;;;1.20;99.90;;;;;;5073542;28;20055;-82
2022/11/20 08:24:29;;;;;;;14.30;9.55;;;1.20;99.90;;;;;;5089637;28;20077;-81
2022/11/20 08:26:58;;;;;;;15.95;10.07;;;1.30;99.90;;;;;;5090394;28;20048;-82
2022/11/20 08:29:24;;;;;;;15.43;10.00;;;1.30;99.90;;;;;;5056164;28;20109;-82
2022/11/20 08:31:49;;;;;;;14.82;10.10;;;1.40;99.90;;;;;;5072362;28;20097;-81
2022/11/20 08:34:15;;;;;;;15.18;9.35;;;1.50;99.90;;;;;;5099160;27;20044;-81
2022/11/20 08:36:41;;;;;;;13.93;8.60;;;1.50;99.90;;;;;;5078731;28;20040;-81
2022/11/20 08:39:06;;;;;;;14.02;9.38;;;1.50;99.90;;;;;;5055620;28;20044;-81
2022/11/20 08:41:32;;;;;;;14.40;9.18;;;1.60;99.90;;;;;;5072466;28;20044;-82
2022/11/20 08:44:06;;;;;;;13.05;9.00;;;1.60;99.90;;;;;;5077526;28;20044;-82
2022/11/20 08:46:39;;;;;;;14.90;10.50;;;1.70;99.90;;;;;;5084043;28;20048;-81
2022/11/20 08:49:05;;;;;;;14.25;10.05;;;1.70;99.90;;;;;;5092468;28;20149;-82
2022/11/20 08:51:32;;;;;;;15.57;10.50;;;1.80;99.90;;;;;;5066946;28;20051;-82
2022/11/20 08:53:57;;;;;;;14.82;9.73;;;1.80;99.90;;;;;;5082974;28;20047;-82
2022/11/20 08:56:25;;;;;;;15.05;10.18;;;1.90;99.90;;;;;;5088833;28;20053;-82
2022/11/20 08:58:52;;;;;;;15.40;10.02;;;1.90;99.90;;;;;;5088571;28;20048;-82
2022/11/20 09:01:21;;;;;;;16.75;9.70;;;2.00;99.90;;;;;;5106208;28;20055;-82
2022/11/20 09:03:47;;;;;;;13.55;9.35;;;2.00;99.90;;;;;;5072135;28;20105;-82
2022/11/20 09:06:13;;;;;;;13.68;9.07;;;2.00;99.90;;;;;;5068640;28;20052;-82
2022/11/20 09:08:39;;;;;;;14.82;9.63;;;2.00;99.90;;;;;;5085462;28;20037;-82
2022/11/20 09:11:05;;;;;;;15.40;9.85;;;2.00;99.90;;;;;;5051860;28;20056;-82
2022/11/20 09:13:32;;;;;;;15.10;9.77;;;2.00;99.90;;;;;;5089728;28;20142;-82
2022/11/20 09:16:07;;;;;;;15.35;10.00;;;2.00;99.90;;;;;;5091970;28;20048;-82
2022/11/20 09:18:35;;;;;;;13.15;9.65;;;2.10;99.90;;;;;;5042105;28;20052;-82
2022/11/20 09:21:04;;;;;;;15.90;11.18;;;2.10;99.90;;;;;;5051133;28;20056;-82
2022/11/20 09:23:35;;;;;;;15.57;10.73;;;2.10;99.90;;;;;;5103027;28;20049;-81
2022/11/20 09:26:06;;;;;;;16.77;10.98;;;2.20;99.90;;;;;;5071676;28;20477;-82
2022/11/20 09:28:32;;;;;;;16.63;11.02;;;2.20;99.90;;;;;;5104594;28;20079;-82
2022/11/20 09:30:58;;;;;;;18.60;11.20;;;2.20;99.90;;;;;;5054834;28;20076;-82
2022/11/20 09:33:24;;;;;;;17.83;10.98;;;2.30;99.90;;;;;;5082417;28;20565;-81
2022/11/20 09:35:49;;;;;;;19.42;11.55;;;2.30;99.90;;;;;;5058219;28;20045;-83
2022/11/20 09:38:15;;;;;;;16.40;11.60;;;2.40;99.90;;;;;;5071491;28;20405;-81
2022/11/20 09:40:49;;;;;;;17.38;12.15;;;2.40;99.90;;;;;;5054308;28;20170;-82
2022/11/20 09:43:21;;;;;;;18.73;13.10;;;2.40;99.90;;;;;;5072656;28;20101;-82
2022/11/20 09:45:52;;;;;;;17.02;12.55;;;2.50;99.90;;;;;;5071411;28;20057;-81
2022/11/20 09:48:22;;;;;;;16.45;11.52;;;2.50;99.90;;;;;;5071716;28;20480;-82
2022/11/20 09:51:08;;;;;;;16.83;11.57;;;2.40;99.90;;;;;;5065640;28;20052;-82
2022/11/20 09:54:18;;;;;;;16.80;12.48;;;2.50;99.90;;;;;;5085044;28;20049;-82
2022/11/20 09:56:52;;;;;;;17.25;11.77;;;2.50;99.90;;;;;;5032133;28;20057;-82
2022/11/20 09:59:39;;;;;;;16.17;11.55;;;2.50;99.90;;;;;;5053715;28;20133;-83
2022/11/20 10:02:23;;;;;;;16.80;12.13;;;2.50;99.90;;;;;;5083653;28;20054;-79
2022/11/20 10:05:08;;;;;;;17.10;11.68;;;2.50;99.90;;;;;;5075159;28;20074;-81
2022/11/20 10:07:41;;;;;;;15.70;11.55;;;2.50;99.90;;;;;;5091892;28;20044;-81
2022/11/20 10:10:21;;;;;;;17.35;12.32;;;2.60;99.90;;;;;;5079032;28;20055;-80
2022/11/20 10:13:27;;;;;;;14.60;10.65;;;2.70;99.90;;;;;;5064953;28;20052;-81
2022/11/20 10:16:01;;;;;;;17.10;11.55;;;2.80;99.90;;;;;;5102004;28;20070;-82
2022/11/20 10:18:57;;;;;;;17.27;11.48;;;2.80;99.90;;;;;;5072106;28;20102;-83
2022/11/20 10:21:41;;;;;;;14.60;10.70;;;2.80;99.90;;;;;;5091477;28;20084;-81
2022/11/20 10:24:16;;;;;;;17.10;11.43;;;2.80;99.90;;;;;;5070624;28;20052;-80
2022/11/20 10:26:41;;;;;;;15.60;11.25;;;3.00;99.90;;;;;;5054546;28;20572;-82
2022/11/20 10:29:15;;;;;;;15.73;11.65;;;3.10;99.90;;;;;;5068876;28;20102;-81
2022/11/20 10:31:49;;;;;;;17.40;12.35;;;3.10;99.90;;;;;;5068876;28;20044;-81
2022/11/20 10:34:30;;;;;;;14.35;10.98;;;3.10;99.90;;;;;;5073064;28;20051;-82
2022/11/20 10:37:03;;;;;;;14.80;10.93;;;3.10;99.90;;;;;;5071366;28;20127;-83
2022/11/20 10:39:51;;;;;;;18.33;11.80;;;3.20;99.90;;;;;;5071722;28;20048;-83
2022/11/20 10:42:42;;;;;;;14.50;10.65;;;3.20;99.90;;;;;;5059280;28;20048;-82
2022/11/20 10:45:39;;;;;;;16.27;10.65;;;3.20;99.90;;;;;;5087541;28;20048;-83
2022/11/20 10:48:23;;;;;;;14.15;9.63;;;3.20;99.90;;;;;;5071373;28;20537;-80
2022/11/20 10:50:54;;;;;;;13.05;10.10;;;3.10;99.90;;;;;;5072752;28;20075;-83
2022/11/20 10:53:44;;;;;;;14.10;10.70;;;3.00;99.90;;;;;;5050885;28;20799;-82
2022/11/20 10:56:34;;;;;;;16.05;11.00;;;3.10;99.90;;;;;;5104299;28;20044;-82
2022/11/20 10:59:27;;;;;;;14.45;10.63;;;3.20;99.90;;;;;;5075726;28;20488;-85
2022/11/20 11:01:53;;;;;;;15.77;11.10;;;3.30;99.90;;;;;;5070213;28;20052;-82
2022/11/20 11:04:36;;;;;;;14.00;10.07;;;3.30;99.90;;;;;;5053649;28;20165;-80
2022/11/20 11:07:15;;;;;;;17.08;11.05;;;3.50;99.90;;;;;;5071115;28;20060;-80
2022/11/20 11:09:59;;;;;;;13.60;9.80;;;3.60;99.90;;;;;;5070563;28;20563;-80
2022/11/20 11:12:28;;;;;;;14.23;9.75;;;3.70;99.90;;;;;;5053952;28;20094;-81
2022/11/20 11:14:56;;;;;;;14.52;9.73;;;3.90;99.90;;;;;;5069495;28;20515;-82
2022/11/20 11:17:29;;;;;;;14.65;10.20;;;4.00;99.90;;;;;;5055125;28;20060;-82
2022/11/20 11:20:01;;;;;;;13.25;9.70;;;4.10;99.90;;;;;;5093801;27;20061;-83
2022/11/20 11:22:30;;;;;;;14.10;9.68;;;4.20;99.90;;;;;;5078605;28;20122;-83
2022/11/20 11:24:56;;;;;;;14.00;9.82;;;4.20;99.90;;;;;;5051801;28;20068;-83
2022/11/20 11:27:22;;;;;;;13.43;9.82;;;4.20;99.90;;;;;;5070859;28;20060;-83
2022/11/20 11:29:48;;;;;;;14.00;10.10;;;4.10;99.90;;;;;;5053306;28;20048;-83
2022/11/20 11:32:21;;;;;;;13.82;10.15;;;3.90;99.90;;;;;;5068496;28;20048;-84
2022/11/20 11:35:18;;;;;;;14.15;8.85;;;4.00;99.90;;;;;;5070337;28;20059;-82
2022/11/20 11:37:46;;;;;;;11.75;8.88;;;4.10;99.90;;;;;;5090885;28;20048;-82
2022/11/20 11:40:13;;;;;;;13.23;8.77;;;4.10;99.90;;;;;;5071548;28;20400;-82
2022/11/20 11:42:44;;;;;;;13.02;8.13;;;4.10;99.90;;;;;;5059670;28;20189;-83
2022/11/20 11:45:17;;;;;;;13.30;9.02;;;4.20;99.90;;;;;;5088163;28;20044;-82
2022/11/20 11:47:42;;;;;;;12.20;8.63;;;4.10;99.90;;;;;;5101699;28;20044;-82
2022/11/20 11:50:08;;;;;;;10.93;7.18;;;4.10;99.90;;;;;;5070181;28;20074;-82
2022/11/20 11:52:47;;;;;;;12.38;7.10;;;4.10;99.90;;;;;;5053033;28;20404;-83
2022/11/20 11:55:44;;;;;;;11.75;6.82;;;4.10;99.90;;;;;;5067400;28;20121;-82
2022/11/20 11:58:20;;;;;;;10.57;6.72;;;4.10;99.90;;;;;;5065502;28;20125;-83
2022/11/20 12:00:57;;;;;;;10.37;6.23;;;4.10;99.90;;;;;;5098040;28;20041;-83
2022/11/20 12:03:34;;;;;;;8.93;6.10;;;4.10;99.90;;;;;;5070549;28;20355;-83
2022/11/20 12:06:04;;;;;;;10.57;6.32;;;4.00;99.90;;;;;;5070582;28;20135;-82
2022/11/20 12:08:40;;;;;;;10.30;6.28;;;3.90;99.90;;;;;;5068558;28;20101;-83
2022/11/20 12:11:38;;;;;;;9.65;6.40;;;3.80;99.90;;;;;;5070487;28;20076;-83
2022/11/20 12:14:26;;;;;;;11.15;6.55;;;3.80;99.90;;;;;;5025512;28;20595;-84
2022/11/20 12:16:53;;;;;;;9.00;5.78;;;3.70;99.90;;;;;;5054310;28;20106;-83
2022/11/20 12:19:18;;;;;;;9.98;6.93;;;3.70;99.90;;;;;;5055748;28;20048;-84
2022/11/20 12:22:12;;;;;;;11.05;7.30;;;3.70;99.90;;;;;;5053913;28;20496;-82
2022/11/20 12:25:15;;;;;;;9.80;5.32;;;3.70;99.90;;;;;;5068941;28;20052;-83
2022/11/20 12:28:08;;;;;;;8.15;5.15;;;3.70;99.90;;;;;;5061467;28;20044;-82
2022/11/20 12:30:46;;;;;;;8.77;4.97;;;3.70;99.90;;;;;;5068059;28;20076;-84
2022/11/20 12:33:31;;;;;;;7.47;5.00;;;3.70;99.90;;;;;;5067146;28;20114;-83
2022/11/20 12:36:11;;;;;;;8.30;5.47;;;3.80;99.90;;;;;;5066482;28;20059;-82
2022/11/20 12:38:58;;;;;;;9.60;5.60;;;3.70;99.90;;;;;;5052021;28;20049;-82
2022/11/20 12:47:47;;;;;;;6.68;4.57;;;3.80;99.90;;;;;;5068487;28;20553;-82
2022/11/20 12:50:13;;;;;;;8.82;5.93;;;3.70;99.90;;;;;;5066663;28;20045;-82
2022/11/20 12:53:01;;;;;;;8.30;5.55;;;3.70;99.90;;;;;;5083328;28;20059;-82
2022/11/20 12:55:36;;;;;;;8.38;5.70;;;3.70;99.90;;;;;;5048901;28;20088;-82
2022/11/20 12:58:43;;;;;;;8.65;5.75;;;3.70;99.90;;;;;;5051329;28;20053;-83
2022/11/20 13:01:47;;;;;;;6.20;3.97;;;3.70;99.90;;;;;;5068156;28;20056;-83
2022/11/20 13:04:22;;;;;;;8.57;5.85;;;3.70;99.90;;;;;;5067382;28;20302;-83
2022/11/20 13:06:48;;;;;;;9.65;6.55;;;3.70;99.90;;;;;;5067969;28;20041;-82
2022/11/20 13:09:18;;;;;;;10.05;6.40;;;3.70;99.90;;;;;;5051962;28;20123;-82
2022/11/20 13:12:09;;;;;;;9.15;6.38;;;3.60;99.90;;;;;;5067905;28;20079;-83